首页
METAR-TAF:

METAR-TAF

机场 :

多特蒙德机场

多特蒙德, 德国

纬度: 51-31N, 经度: 007-37E, 海拔: 127米

当前天气观测

该预报发布于26分钟前的22:20 UTC
风速5节,风向,在西北东转东北之间变化
温度 18°C
湿度 77%
气压 1026 hPa
能见度10公里或以上

METAR: EDLW 262220Z AUTO 01005KT 310V070 9999 // NCD 18/14 Q1026

时间: 00:46 (22:46 UTC)

预报

该预报发布于5小时和46分钟前的17:00 UTC
预报有效从26日的 18点(UTC)到 27日的 18点(UTC)
风速6节,风向
能见度10公里或以上
1500米以下无云,无积雨云

TAF: EDLW 261700Z 2618/2718 01006KT CAVOK

超过4000个机场的气象观测和天气预报(METAR&TAF报告)。

可查询的气象台以黄色和红色小点在地图上表示。

将鼠标移到小点上方,可查看气象台名称。

然后点击查看天气观测和预报。

如需切换地图:点击带黑十字的绿色按钮放大地图;点击带横线的绿色按钮缩小地图;或者点击绿色箭头查看邻近地区的地图。


METAR-TAF: